sensor_id;sensor_type;location;lat;lon;timestamp;P1;durP1;ratioP1;P2;durP2;ratioP2
43319;SDS011;28914;48.722;9.332;2024-02-23T00:01:33;1.27;;;0.40;;
43319;SDS011;28914;48.722;9.332;2024-02-23T00:06:52;1.27;;;0.50;;
43319;SDS011;28914;48.722;9.332;2024-02-23T00:12:12;0.80;;;0.47;;
43319;SDS011;28914;48.722;9.332;2024-02-23T00:17:32;0.70;;;0.40;;
43319;SDS011;28914;48.722;9.332;2024-02-23T00:22:52;0.80;;;0.40;;
43319;SDS011;28914;48.722;9.332;2024-02-23T00:28:12;0.80;;;0.40;;
43319;SDS011;28914;48.722;9.332;2024-02-23T00:33:31;0.90;;;0.43;;
43319;SDS011;28914;48.722;9.332;2024-02-23T00:38:50;0.80;;;0.40;;
43319;SDS011;28914;48.722;9.332;2024-02-23T00:44:09;1.00;;;0.40;;
43319;SDS011;28914;48.722;9.332;2024-02-23T00:49:28;0.90;;;0.50;;
43319;SDS011;28914;48.722;9.332;2024-02-23T00:54:48;1.67;;;0.47;;
43319;SDS011;28914;48.722;9.332;2024-02-23T01:00:07;0.70;;;0.40;;
43319;SDS011;28914;48.722;9.332;2024-02-23T01:05:28;1.10;;;0.70;;
43319;SDS011;28914;48.722;9.332;2024-02-23T01:10:47;0.90;;;0.50;;
43319;SDS011;28914;48.722;9.332;2024-02-23T01:16:06;1.80;;;1.70;;
43319;SDS011;28914;48.722;9.332;2024-02-23T01:21:25;1.10;;;0.80;;
43319;SDS011;28914;48.722;9.332;2024-02-23T01:26:44;1.07;;;0.60;;
43319;SDS011;28914;48.722;9.332;2024-02-23T01:32:04;0.80;;;0.50;;
43319;SDS011;28914;48.722;9.332;2024-02-23T01:37:23;1.10;;;0.50;;
43319;SDS011;28914;48.722;9.332;2024-02-23T01:42:42;1.17;;;0.50;;
43319;SDS011;28914;48.722;9.332;2024-02-23T01:48:01;1.37;;;0.43;;
43319;SDS011;28914;48.722;9.332;2024-02-23T01:53:21;0.80;;;0.50;;
43319;SDS011;28914;48.722;9.332;2024-02-23T01:58:41;2.70;;;0.57;;
43319;SDS011;28914;48.722;9.332;2024-02-23T02:04:00;1.20;;;0.60;;
43319;SDS011;28914;48.722;9.332;2024-02-23T02:09:19;0.90;;;0.60;;
43319;SDS011;28914;48.722;9.332;2024-02-23T02:14:39;1.63;;;0.50;;
43319;SDS011;28914;48.722;9.332;2024-02-23T02:20:01;1.50;;;0.50;;
43319;SDS011;28914;48.722;9.332;2024-02-23T02:25:22;0.80;;;0.50;;
43319;SDS011;28914;48.722;9.332;2024-02-23T02:30:42;1.60;;;0.50;;
43319;SDS011;28914;48.722;9.332;2024-02-23T02:36:01;0.87;;;0.47;;
43319;SDS011;28914;48.722;9.332;2024-02-23T02:41:20;1.37;;;0.60;;
43319;SDS011;28914;48.722;9.332;2024-02-23T02:46:42;1.30;;;0.50;;
43319;SDS011;28914;48.722;9.332;2024-02-23T02:52:01;1.40;;;0.60;;
43319;SDS011;28914;48.722;9.332;2024-02-23T02:57:21;0.90;;;0.50;;
43319;SDS011;28914;48.722;9.332;2024-02-23T03:02:40;1.20;;;0.50;;
43319;SDS011;28914;48.722;9.332;2024-02-23T03:07:59;1.00;;;0.50;;
43319;SDS011;28914;48.722;9.332;2024-02-23T03:13:19;1.07;;;0.80;;
43319;SDS011;28914;48.722;9.332;2024-02-23T03:18:38;1.20;;;0.50;;
43319;SDS011;28914;48.722;9.332;2024-02-23T03:23:57;1.43;;;0.50;;
43319;SDS011;28914;48.722;9.332;2024-02-23T03:29:17;1.20;;;0.50;;
43319;SDS011;28914;48.722;9.332;2024-02-23T03:34:36;0.80;;;0.47;;
43319;SDS011;28914;48.722;9.332;2024-02-23T03:39:55;2.23;;;0.70;;
43319;SDS011;28914;48.722;9.332;2024-02-23T03:45:15;1.10;;;0.47;;
43319;SDS011;28914;48.722;9.332;2024-02-23T03:50:34;1.37;;;0.60;;
43319;SDS011;28914;48.722;9.332;2024-02-23T03:55:53;1.00;;;0.57;;
43319;SDS011;28914;48.722;9.332;2024-02-23T04:01:12;1.00;;;0.60;;
43319;SDS011;28914;48.722;9.332;2024-02-23T04:06:32;1.77;;;0.60;;
43319;SDS011;28914;48.722;9.332;2024-02-23T04:11:52;1.73;;;0.60;;
43319;SDS011;28914;48.722;9.332;2024-02-23T04:17:11;1.63;;;0.60;;
43319;SDS011;28914;48.722;9.332;2024-02-23T04:22:30;3.27;;;0.60;;
43319;SDS011;28914;48.722;9.332;2024-02-23T04:27:50;1.70;;;0.63;;
43319;SDS011;28914;48.722;9.332;2024-02-23T04:33:09;3.70;;;0.60;;
43319;SDS011;28914;48.722;9.332;2024-02-23T04:38:28;1.27;;;0.60;;
43319;SDS011;28914;48.722;9.332;2024-02-23T04:43:48;1.20;;;0.60;;
43319;SDS011;28914;48.722;9.332;2024-02-23T04:49:08;1.10;;;0.50;;
43319;SDS011;28914;48.722;9.332;2024-02-23T04:54:27;1.73;;;0.50;;
43319;SDS011;28914;48.722;9.332;2024-02-23T04:59:46;1.47;;;0.60;;
43319;SDS011;28914;48.722;9.332;2024-02-23T05:05:05;1.20;;;0.70;;
43319;SDS011;28914;48.722;9.332;2024-02-23T05:10:25;1.50;;;1.00;;
43319;SDS011;28914;48.722;9.332;2024-02-23T05:15:44;1.10;;;0.70;;
43319;SDS011;28914;48.722;9.332;2024-02-23T05:21:04;1.97;;;0.60;;
43319;SDS011;28914;48.722;9.332;2024-02-23T05:26:23;1.00;;;0.63;;
43319;SDS011;28914;48.722;9.332;2024-02-23T05:31:43;1.20;;;0.60;;
43319;SDS011;28914;48.722;9.332;2024-02-23T05:37:04;1.77;;;0.70;;
43319;SDS011;28914;48.722;9.332;2024-02-23T05:42:24;1.93;;;1.27;;
43319;SDS011;28914;48.722;9.332;2024-02-23T05:47:43;4.63;;;3.07;;
43319;SDS011;28914;48.722;9.332;2024-02-23T05:53:02;2.53;;;2.00;;
43319;SDS011;28914;48.722;9.332;2024-02-23T05:58:23;1.83;;;1.00;;
43319;SDS011;28914;48.722;9.332;2024-02-23T06:03:42;2.33;;;1.73;;
43319;SDS011;28914;48.722;9.332;2024-02-23T06:09:03;1.80;;;1.60;;
43319;SDS011;28914;48.722;9.332;2024-02-23T06:14:22;1.17;;;0.97;;
43319;SDS011;28914;48.722;9.332;2024-02-23T06:19:42;1.73;;;0.70;;
43319;SDS011;28914;48.722;9.332;2024-02-23T06:25:01;2.00;;;0.90;;
43319;SDS011;28914;48.722;9.332;2024-02-23T06:30:21;2.10;;;1.90;;
43319;SDS011;28914;48.722;9.332;2024-02-23T06:35:40;3.73;;;3.43;;
43319;SDS011;28914;48.722;9.332;2024-02-23T06:41:00;3.10;;;2.30;;
43319;SDS011;28914;48.722;9.332;2024-02-23T06:46:20;1.60;;;1.40;;
43319;SDS011;28914;48.722;9.332;2024-02-23T06:51:39;1.60;;;1.10;;
43319;SDS011;28914;48.722;9.332;2024-02-23T06:56:59;2.60;;;1.20;;
43319;SDS011;28914;48.722;9.332;2024-02-23T07:02:19;3.70;;;1.30;;
43319;SDS011;28914;48.722;9.332;2024-02-23T07:07:38;1.37;;;1.07;;
43319;SDS011;28914;48.722;9.332;2024-02-23T07:12:59;1.50;;;0.90;;
43319;SDS011;28914;48.722;9.332;2024-02-23T07:18:18;3.20;;;1.17;;
43319;SDS011;28914;48.722;9.332;2024-02-23T07:23:37;1.90;;;1.10;;
43319;SDS011;28914;48.722;9.332;2024-02-23T07:28:57;1.60;;;0.80;;
43319;SDS011;28914;48.722;9.332;2024-02-23T07:34:16;2.17;;;1.20;;
43319;SDS011;28914;48.722;9.332;2024-02-23T07:39:35;2.13;;;1.10;;
43319;SDS011;28914;48.722;9.332;2024-02-23T07:44:54;6.07;;;1.20;;
43319;SDS011;28914;48.722;9.332;2024-02-23T07:50:15;1.10;;;0.70;;
43319;SDS011;28914;48.722;9.332;2024-02-23T07:55:34;2.13;;;1.00;;
43319;SDS011;28914;48.722;9.332;2024-02-23T08:00:54;3.00;;;2.63;;
43319;SDS011;28914;48.722;9.332;2024-02-23T08:06:13;4.33;;;2.07;;
43319;SDS011;28914;48.722;9.332;2024-02-23T08:11:32;1.77;;;1.30;;
43319;SDS011;28914;48.722;9.332;2024-02-23T08:16:51;2.23;;;1.17;;
43319;SDS011;28914;48.722;9.332;2024-02-23T08:22:11;3.07;;;1.80;;
43319;SDS011;28914;48.722;9.332;2024-02-23T08:27:30;2.10;;;1.60;;
43319;SDS011;28914;48.722;9.332;2024-02-23T08:32:49;2.63;;;1.90;;
43319;SDS011;28914;48.722;9.332;2024-02-23T08:38:08;3.97;;;2.53;;
43319;SDS011;28914;48.722;9.332;2024-02-23T08:43:28;2.30;;;1.80;;
43319;SDS011;28914;48.722;9.332;2024-02-23T08:48:47;3.70;;;1.50;;
43319;SDS011;28914;48.722;9.332;2024-02-23T08:54:06;1.73;;;0.93;;
43319;SDS011;28914;48.722;9.332;2024-02-23T08:59:26;1.53;;;0.93;;
43319;SDS011;28914;48.722;9.332;2024-02-23T09:04:45;1.53;;;1.20;;
43319;SDS011;28914;48.722;9.332;2024-02-23T09:10:04;3.30;;;0.90;;
43319;SDS011;28914;48.722;9.332;2024-02-23T09:15:24;1.87;;;0.90;;
43319;SDS011;28914;48.722;9.332;2024-02-23T09:20:43;2.70;;;1.20;;
43319;SDS011;28914;48.722;9.332;2024-02-23T09:26:08;3.03;;;1.30;;
43319;SDS011;28914;48.722;9.332;2024-02-23T09:31:29;2.10;;;1.07;;
43319;SDS011;28914;48.722;9.332;2024-02-23T09:36:50;1.63;;;1.30;;
43319;SDS011;28914;48.722;9.332;2024-02-23T09:42:09;2.60;;;1.17;;
43319;SDS011;28914;48.722;9.332;2024-02-23T09:47:32;3.43;;;1.70;;
43319;SDS011;28914;48.722;9.332;2024-02-23T09:52:51;3.30;;;1.60;;
43319;SDS011;28914;48.722;9.332;2024-02-23T09:58:10;5.93;;;1.87;;
43319;SDS011;28914;48.722;9.332;2024-02-23T10:03:32;3.97;;;1.50;;
43319;SDS011;28914;48.722;9.332;2024-02-23T10:08:51;4.03;;;1.53;;
43319;SDS011;28914;48.722;9.332;2024-02-23T10:14:12;6.17;;;1.27;;
43319;SDS011;28914;48.722;9.332;2024-02-23T10:19:31;2.07;;;1.07;;
43319;SDS011;28914;48.722;9.332;2024-02-23T10:24:52;2.93;;;1.23;;
43319;SDS011;28914;48.722;9.332;2024-02-23T10:30:12;3.10;;;0.93;;
43319;SDS011;28914;48.722;9.332;2024-02-23T10:35:33;1.73;;;0.90;;
43319;SDS011;28914;48.722;9.332;2024-02-23T10:40:59;3.00;;;0.90;;
43319;SDS011;28914;48.722;9.332;2024-02-23T10:46:21;2.03;;;1.17;;
43319;SDS011;28914;48.722;9.332;2024-02-23T10:51:41;2.13;;;1.40;;
43319;SDS011;28914;48.722;9.332;2024-02-23T10:57:02;2.80;;;0.87;;
43319;SDS011;28914;48.722;9.332;2024-02-23T11:02:22;2.43;;;1.00;;
43319;SDS011;28914;48.722;9.332;2024-02-23T11:07:43;1.87;;;1.10;;
43319;SDS011;28914;48.722;9.332;2024-02-23T11:13:07;1.67;;;0.70;;
43319;SDS011;28914;48.722;9.332;2024-02-23T11:18:27;1.77;;;0.90;;
43319;SDS011;28914;48.722;9.332;2024-02-23T11:23:47;2.60;;;1.17;;
43319;SDS011;28914;48.722;9.332;2024-02-23T11:29:11;3.60;;;1.03;;
43319;SDS011;28914;48.722;9.332;2024-02-23T11:34:31;1.87;;;0.90;;
43319;SDS011;28914;48.722;9.332;2024-02-23T11:39:53;3.57;;;1.27;;
43319;SDS011;28914;48.722;9.332;2024-02-23T11:45:12;2.23;;;1.03;;
43319;SDS011;28914;48.722;9.332;2024-02-23T11:50:32;2.10;;;0.80;;
43319;SDS011;28914;48.722;9.332;2024-02-23T11:55:52;2.70;;;0.93;;
43319;SDS011;28914;48.722;9.332;2024-02-23T12:01:12;2.50;;;1.07;;
43319;SDS011;28914;48.722;9.332;2024-02-23T12:06:30;4.30;;;2.20;;
43319;SDS011;28914;48.722;9.332;2024-02-23T12:11:51;3.87;;;1.40;;
43319;SDS011;28914;48.722;9.332;2024-02-23T12:17:10;2.47;;;1.07;;
43319;SDS011;28914;48.722;9.332;2024-02-23T12:22:30;1.97;;;0.90;;
43319;SDS011;28914;48.722;9.332;2024-02-23T12:27:55;1.80;;;1.10;;
43319;SDS011;28914;48.722;9.332;2024-02-23T12:33:18;2.60;;;1.60;;
43319;SDS011;28914;48.722;9.332;2024-02-23T12:38:39;4.97;;;3.27;;
43319;SDS011;28914;48.722;9.332;2024-02-23T12:43:58;4.47;;;3.77;;
43319;SDS011;28914;48.722;9.332;2024-02-23T12:49:18;3.60;;;1.47;;
43319;SDS011;28914;48.722;9.332;2024-02-23T12:54:37;2.50;;;1.57;;
43319;SDS011;28914;48.722;9.332;2024-02-23T12:59:56;3.20;;;1.97;;
43319;SDS011;28914;48.722;9.332;2024-02-23T13:05:15;2.00;;;1.50;;
43319;SDS011;28914;48.722;9.332;2024-02-23T13:10:34;3.33;;;1.20;;
43319;SDS011;28914;48.722;9.332;2024-02-23T13:15:54;3.00;;;1.30;;
43319;SDS011;28914;48.722;9.332;2024-02-23T13:21:13;3.23;;;1.50;;
43319;SDS011;28914;48.722;9.332;2024-02-23T13:26:33;1.97;;;1.00;;
43319;SDS011;28914;48.722;9.332;2024-02-23T13:31:53;2.87;;;1.07;;
43319;SDS011;28914;48.722;9.332;2024-02-23T13:37:12;6.60;;;1.53;;
43319;SDS011;28914;48.722;9.332;2024-02-23T13:42:31;4.37;;;2.20;;
43319;SDS011;28914;48.722;9.332;2024-02-23T13:48:01;2.40;;;1.03;;
43319;SDS011;28914;48.722;9.332;2024-02-23T13:53:21;2.53;;;1.00;;
43319;SDS011;28914;48.722;9.332;2024-02-23T13:58:41;2.27;;;1.23;;
43319;SDS011;28914;48.722;9.332;2024-02-23T14:04:00;1.80;;;0.80;;
43319;SDS011;28914;48.722;9.332;2024-02-23T14:09:25;2.63;;;1.00;;
43319;SDS011;28914;48.722;9.332;2024-02-23T14:14:44;4.60;;;1.40;;
43319;SDS011;28914;48.722;9.332;2024-02-23T14:20:03;2.33;;;1.00;;
43319;SDS011;28914;48.722;9.332;2024-02-23T14:25:23;3.23;;;1.57;;
43319;SDS011;28914;48.722;9.332;2024-02-23T14:30:42;2.30;;;1.20;;
43319;SDS011;28914;48.722;9.332;2024-02-23T14:36:01;1.57;;;0.93;;
43319;SDS011;28914;48.722;9.332;2024-02-23T14:41:20;6.53;;;1.63;;
43319;SDS011;28914;48.722;9.332;2024-02-23T14:46:40;3.20;;;1.60;;
43319;SDS011;28914;48.722;9.332;2024-02-23T14:51:59;4.03;;;1.60;;
43319;SDS011;28914;48.722;9.332;2024-02-23T14:57:18;2.93;;;1.10;;
43319;SDS011;28914;48.722;9.332;2024-02-23T15:02:38;3.20;;;1.30;;
43319;SDS011;28914;48.722;9.332;2024-02-23T15:07:58;2.93;;;1.10;;
43319;SDS011;28914;48.722;9.332;2024-02-23T15:13:17;4.30;;;1.63;;
43319;SDS011;28914;48.722;9.332;2024-02-23T15:18:37;2.30;;;1.70;;
43319;SDS011;28914;48.722;9.332;2024-02-23T15:23:57;2.97;;;1.53;;
43319;SDS011;28914;48.722;9.332;2024-02-23T15:29:17;4.37;;;2.13;;
43319;SDS011;28914;48.722;9.332;2024-02-23T15:34:36;5.13;;;4.00;;
43319;SDS011;28914;48.722;9.332;2024-02-23T15:39:55;2.03;;;1.60;;
43319;SDS011;28914;48.722;9.332;2024-02-23T15:45:14;5.63;;;2.03;;
43319;SDS011;28914;48.722;9.332;2024-02-23T15:50:33;3.83;;;1.57;;
43319;SDS011;28914;48.722;9.332;2024-02-23T15:55:53;3.53;;;1.93;;
43319;SDS011;28914;48.722;9.332;2024-02-23T16:01:12;3.50;;;1.60;;
43319;SDS011;28914;48.722;9.332;2024-02-23T16:06:31;2.37;;;1.07;;
43319;SDS011;28914;48.722;9.332;2024-02-23T16:11:54;3.43;;;1.53;;
43319;SDS011;28914;48.722;9.332;2024-02-23T16:17:13;6.23;;;1.60;;
43319;SDS011;28914;48.722;9.332;2024-02-23T16:22:32;1.93;;;1.00;;
43319;SDS011;28914;48.722;9.332;2024-02-23T16:27:51;2.60;;;1.00;;
43319;SDS011;28914;48.722;9.332;2024-02-23T16:33:11;2.13;;;1.20;;
43319;SDS011;28914;48.722;9.332;2024-02-23T16:38:30;3.80;;;3.30;;
43319;SDS011;28914;48.722;9.332;2024-02-23T16:43:49;5.20;;;2.37;;
43319;SDS011;28914;48.722;9.332;2024-02-23T16:49:08;2.73;;;1.73;;
43319;SDS011;28914;48.722;9.332;2024-02-23T16:54:27;3.33;;;1.63;;
43319;SDS011;28914;48.722;9.332;2024-02-23T16:59:47;8.83;;;7.20;;
43319;SDS011;28914;48.722;9.332;2024-02-23T17:05:06;8.90;;;6.87;;
43319;SDS011;28914;48.722;9.332;2024-02-23T17:10:26;5.37;;;2.27;;
43319;SDS011;28914;48.722;9.332;2024-02-23T17:15:46;9.67;;;7.40;;
43319;SDS011;28914;48.722;9.332;2024-02-23T17:21:05;5.03;;;3.70;;
43319;SDS011;28914;48.722;9.332;2024-02-23T17:26:24;4.23;;;2.57;;
43319;SDS011;28914;48.722;9.332;2024-02-23T17:31:43;2.67;;;1.53;;
43319;SDS011;28914;48.722;9.332;2024-02-23T17:37:03;4.70;;;2.27;;
43319;SDS011;28914;48.722;9.332;2024-02-23T17:42:25;9.20;;;6.17;;
43319;SDS011;28914;48.722;9.332;2024-02-23T17:47:45;13.83;;;10.00;;
43319;SDS011;28914;48.722;9.332;2024-02-23T17:53:04;22.97;;;17.00;;
43319;SDS011;28914;48.722;9.332;2024-02-23T17:58:26;12.40;;;9.50;;
43319;SDS011;28914;48.722;9.332;2024-02-23T18:03:45;8.43;;;5.10;;
43319;SDS011;28914;48.722;9.332;2024-02-23T18:09:04;6.83;;;5.27;;
43319;SDS011;28914;48.722;9.332;2024-02-23T18:14:23;9.90;;;8.20;;
43319;SDS011;28914;48.722;9.332;2024-02-23T18:19:43;5.03;;;3.30;;
43319;SDS011;28914;48.722;9.332;2024-02-23T18:25:02;7.60;;;4.80;;
43319;SDS011;28914;48.722;9.332;2024-02-23T18:30:22;5.67;;;3.10;;
43319;SDS011;28914;48.722;9.332;2024-02-23T18:35:41;3.43;;;2.40;;
43319;SDS011;28914;48.722;9.332;2024-02-23T18:41:00;4.13;;;1.67;;
43319;SDS011;28914;48.722;9.332;2024-02-23T18:46:21;5.10;;;4.03;;
43319;SDS011;28914;48.722;9.332;2024-02-23T18:51:41;3.70;;;2.50;;
43319;SDS011;28914;48.722;9.332;2024-02-23T18:57:00;3.17;;;1.60;;
43319;SDS011;28914;48.722;9.332;2024-02-23T19:02:20;2.10;;;1.53;;
43319;SDS011;28914;48.722;9.332;2024-02-23T19:07:39;2.13;;;1.30;;
43319;SDS011;28914;48.722;9.332;2024-02-23T19:12:58;3.10;;;1.20;;
43319;SDS011;28914;48.722;9.332;2024-02-23T19:18:17;41.17;;;31.10;;
43319;SDS011;28914;48.722;9.332;2024-02-23T19:23:38;32.00;;;27.80;;
43319;SDS011;28914;48.722;9.332;2024-02-23T19:28:58;18.57;;;14.47;;
43319;SDS011;28914;48.722;9.332;2024-02-23T19:34:17;11.40;;;10.30;;
43319;SDS011;28914;48.722;9.332;2024-02-23T19:39:36;6.20;;;4.83;;
43319;SDS011;28914;48.722;9.332;2024-02-23T19:44:55;3.50;;;2.47;;
43319;SDS011;28914;48.722;9.332;2024-02-23T19:50:14;6.07;;;2.27;;
43319;SDS011;28914;48.722;9.332;2024-02-23T19:55:35;2.60;;;1.57;;
43319;SDS011;28914;48.722;9.332;2024-02-23T20:00:55;4.47;;;3.33;;
43319;SDS011;28914;48.722;9.332;2024-02-23T20:06:14;4.40;;;4.00;;
43319;SDS011;28914;48.722;9.332;2024-02-23T20:11:33;3.90;;;3.27;;
43319;SDS011;28914;48.722;9.332;2024-02-23T20:16:53;2.90;;;2.30;;
43319;SDS011;28914;48.722;9.332;2024-02-23T20:22:12;7.80;;;5.97;;
43319;SDS011;28914;48.722;9.332;2024-02-23T20:27:34;12.33;;;9.67;;
43319;SDS011;28914;48.722;9.332;2024-02-23T20:32:54;8.10;;;5.50;;
43319;SDS011;28914;48.722;9.332;2024-02-23T20:38:13;4.10;;;3.70;;
43319;SDS011;28914;48.722;9.332;2024-02-23T20:43:33;4.43;;;2.70;;
43319;SDS011;28914;48.722;9.332;2024-02-23T20:48:52;2.90;;;1.93;;
43319;SDS011;28914;48.722;9.332;2024-02-23T20:54:11;2.63;;;2.20;;
43319;SDS011;28914;48.722;9.332;2024-02-23T20:59:32;2.70;;;1.93;;
43319;SDS011;28914;48.722;9.332;2024-02-23T21:04:51;4.40;;;1.93;;
43319;SDS011;28914;48.722;9.332;2024-02-23T21:10:12;10.47;;;6.80;;
43319;SDS011;28914;48.722;9.332;2024-02-23T21:15:34;10.83;;;7.07;;
43319;SDS011;28914;48.722;9.332;2024-02-23T21:20:55;5.27;;;4.00;;
43319;SDS011;28914;48.722;9.332;2024-02-23T21:26:16;4.60;;;2.70;;
43319;SDS011;28914;48.722;9.332;2024-02-23T21:31:35;2.13;;;1.60;;
43319;SDS011;28914;48.722;9.332;2024-02-23T21:36:55;5.33;;;4.40;;
43319;SDS011;28914;48.722;9.332;2024-02-23T21:42:14;6.13;;;3.60;;
43319;SDS011;28914;48.722;9.332;2024-02-23T21:47:33;3.90;;;3.23;;
43319;SDS011;28914;48.722;9.332;2024-02-23T21:52:52;3.60;;;3.13;;
43319;SDS011;28914;48.722;9.332;2024-02-23T21:58:11;3.67;;;2.93;;
43319;SDS011;28914;48.722;9.332;2024-02-23T22:03:31;2.67;;;2.10;;
43319;SDS011;28914;48.722;9.332;2024-02-23T22:08:51;5.90;;;3.30;;
43319;SDS011;28914;48.722;9.332;2024-02-23T22:14:10;3.40;;;2.27;;
43319;SDS011;28914;48.722;9.332;2024-02-23T22:19:30;4.20;;;2.33;;
43319;SDS011;28914;48.722;9.332;2024-02-23T22:24:49;4.80;;;2.43;;
43319;SDS011;28914;48.722;9.332;2024-02-23T22:30:08;2.57;;;2.37;;
43319;SDS011;28914;48.722;9.332;2024-02-23T22:35:28;4.47;;;2.47;;
43319;SDS011;28914;48.722;9.332;2024-02-23T22:40:47;3.23;;;2.40;;
43319;SDS011;28914;48.722;9.332;2024-02-23T22:46:06;3.13;;;2.23;;
43319;SDS011;28914;48.722;9.332;2024-02-23T22:51:26;3.33;;;2.40;;
43319;SDS011;28914;48.722;9.332;2024-02-23T22:56:45;3.37;;;2.60;;
43319;SDS011;28914;48.722;9.332;2024-02-23T23:02:04;3.40;;;2.53;;
43319;SDS011;28914;48.722;9.332;2024-02-23T23:07:23;2.23;;;2.00;;
43319;SDS011;28914;48.722;9.332;2024-02-23T23:12:44;3.87;;;2.77;;
43319;SDS011;28914;48.722;9.332;2024-02-23T23:18:03;3.40;;;2.33;;
43319;SDS011;28914;48.722;9.332;2024-02-23T23:23:22;5.40;;;2.90;;
43319;SDS011;28914;48.722;9.332;2024-02-23T23:28:41;4.23;;;3.00;;
43319;SDS011;28914;48.722;9.332;2024-02-23T23:34:01;3.73;;;2.80;;
43319;SDS011;28914;48.722;9.332;2024-02-23T23:39:20;4.53;;;3.33;;
43319;SDS011;28914;48.722;9.332;2024-02-23T23:44:39;4.83;;;3.50;;
43319;SDS011;28914;48.722;9.332;2024-02-23T23:49:58;7.83;;;4.00;;
43319;SDS011;28914;48.722;9.332;2024-02-23T23:55:18;2.87;;;2.60;;
